sensor_id;sensor_type;location;lat;lon;timestamp;pressure;altitude;pressure_sealevel;temperature;humidity
25130;BME280;13308;50.860;13.664;2022-12-18T06:55:37;98203.38;;;-9.60;100.00
25130;BME280;13308;50.860;13.664;2022-12-18T06:58:02;98212.22;;;-9.55;100.00
25130;BME280;13308;50.860;13.664;2022-12-18T07:00:28;98215.72;;;-9.49;100.00
25130;BME280;13308;50.860;13.664;2022-12-18T07:02:53;98228.03;;;-9.43;100.00
25130;BME280;13308;50.860;13.664;2022-12-18T07:05:19;98225.16;;;-9.37;100.00
25130;BME280;13308;50.860;13.664;2022-12-18T07:07:44;98234.50;;;-9.34;100.00
25130;BME280;13308;50.860;13.664;2022-12-18T07:10:10;98236.75;;;-9.21;100.00
25130;BME280;13308;50.860;13.664;2022-12-18T07:12:35;98234.03;;;-9.26;100.00
25130;BME280;13308;50.860;13.664;2022-12-18T07:15:00;98234.06;;;-9.16;100.00
25130;BME280;13308;50.860;13.664;2022-12-18T07:17:26;98233.53;;;-9.18;100.00
25130;BME280;13308;50.860;13.664;2022-12-18T07:19:51;98229.84;;;-9.12;100.00
25130;BME280;13308;50.860;13.664;2022-12-18T07:22:17;98224.84;;;-8.99;100.00
25130;BME280;13308;50.860;13.664;2022-12-18T07:24:42;98221.97;;;-8.82;100.00
25130;BME280;13308;50.860;13.664;2022-12-18T07:27:08;98225.25;;;-8.70;100.00
25130;BME280;13308;50.860;13.664;2022-12-18T07:29:33;98219.41;;;-8.57;100.00
25130;BME280;13308;50.860;13.664;2022-12-18T07:31:58;98230.09;;;-8.62;100.00
25130;BME280;13308;50.860;13.664;2022-12-18T07:34:24;98235.97;;;-8.60;100.00
25130;BME280;13308;50.860;13.664;2022-12-18T07:36:49;98232.28;;;-8.49;100.00
25130;BME280;13308;50.860;13.664;2022-12-18T07:39:14;98241.91;;;-8.48;100.00
25130;BME280;13308;50.860;13.664;2022-12-18T07:41:40;98251.31;;;-8.41;100.00
25130;BME280;13308;50.860;13.664;2022-12-18T07:44:28;98249.97;;;-8.38;100.00
25130;BME280;13308;50.860;13.664;2022-12-18T07:46:53;98245.66;;;-8.39;100.00
25130;BME280;13308;50.860;13.664;2022-12-18T07:49:19;98244.81;;;-8.55;100.00
25130;BME280;13308;50.860;13.664;2022-12-18T07:51:44;98242.94;;;-8.59;100.00
25130;BME280;13308;50.860;13.664;2022-12-18T07:54:14;98248.31;;;-8.54;100.00
25130;BME280;13308;50.860;13.664;2022-12-18T07:56:39;98248.31;;;-8.54;100.00
25130;BME280;13308;50.860;13.664;2022-12-18T07:59:04;98255.28;;;-8.48;100.00
25130;BME280;13308;50.860;13.664;2022-12-18T08:01:30;98250.72;;;-8.48;100.00
25130;BME280;13308;50.860;13.664;2022-12-18T08:03:57;98254.75;;;-8.45;100.00
25130;BME280;13308;50.860;13.664;2022-12-18T08:06:22;98254.19;;;-8.52;100.00
25130;BME280;13308;50.860;13.664;2022-12-18T08:08:48;98257.41;;;-8.50;100.00
25130;BME280;13308;50.860;13.664;2022-12-18T08:11:13;98258.53;;;-8.36;100.00
25130;BME280;13308;50.860;13.664;2022-12-18T08:13:38;98248.94;;;-8.22;100.00
25130;BME280;13308;50.860;13.664;2022-12-18T08:16:06;98251.66;;;-8.02;100.00
25130;BME280;13308;50.860;13.664;2022-12-18T08:18:33;98249.00;;;-7.82;100.00
25130;BME280;13308;50.860;13.664;2022-12-18T08:21:08;98245.25;;;-7.52;100.00
25130;BME280;13308;50.860;13.664;2022-12-18T08:23:34;98240.97;;;-7.48;100.00
25130;BME280;13308;50.860;13.664;2022-12-18T08:25:59;98237.75;;;-7.30;100.00
25130;BME280;13308;50.860;13.664;2022-12-18T08:28:25;98243.06;;;-7.10;100.00
25130;BME280;13308;50.860;13.664;2022-12-18T08:30:53;98237.44;;;-6.98;100.00
25130;BME280;13308;50.860;13.664;2022-12-18T08:33:18;98237.63;;;-6.85;100.00
25130;BME280;13308;50.860;13.664;2022-12-18T08:35:43;98230.66;;;-6.71;100.00
25130;BME280;13308;50.860;13.664;2022-12-18T08:38:09;98227.34;;;-6.48;100.00
25130;BME280;13308;50.860;13.664;2022-12-18T08:40:34;98229.69;;;-6.36;100.00
25130;BME280;13308;50.860;13.664;2022-12-18T08:42:59;98230.41;;;-6.21;100.00
25130;BME280;13308;50.860;13.664;2022-12-18T08:45:43;98222.16;;;-5.86;100.00
25130;BME280;13308;50.860;13.664;2022-12-18T08:48:09;98229.50;;;-5.68;100.00
25130;BME280;13308;50.860;13.664;2022-12-18T08:50:34;98238.41;;;-5.39;100.00
25130;BME280;13308;50.860;13.664;2022-12-18T08:53:00;98247.00;;;-5.37;100.00
25130;BME280;13308;50.860;13.664;2022-12-18T08:55:25;98249.75;;;-5.13;100.00
25130;BME280;13308;50.860;13.664;2022-12-18T08:57:51;98255.81;;;-4.98;100.00
25130;BME280;13308;50.860;13.664;2022-12-18T09:00:16;98247.56;;;-4.83;98.84
25130;BME280;13308;50.860;13.664;2022-12-18T09:02:41;98251.06;;;-4.59;98.28
25130;BME280;13308;50.860;13.664;2022-12-18T09:05:07;98255.84;;;-4.51;96.80
25130;BME280;13308;50.860;13.664;2022-12-18T09:07:32;98250.09;;;-4.21;95.55
25130;BME280;13308;50.860;13.664;2022-12-18T09:09:58;98256.38;;;-4.07;94.18
25130;BME280;13308;50.860;13.664;2022-12-18T09:12:23;98247.72;;;-3.85;93.34
25130;BME280;13308;50.860;13.664;2022-12-18T09:14:48;98251.59;;;-3.73;92.16
25130;BME280;13308;50.860;13.664;2022-12-18T09:17:14;98249.19;;;-3.56;91.81
25130;BME280;13308;50.860;13.664;2022-12-18T09:19:39;98262.50;;;-3.46;90.90
25130;BME280;13308;50.860;13.664;2022-12-18T09:22:05;98270.69;;;-3.19;90.34
25130;BME280;13308;50.860;13.664;2022-12-18T09:24:30;98277.00;;;-3.10;89.65
25130;BME280;13308;50.860;13.664;2022-12-18T09:26:55;98277.88;;;-2.96;88.83
25130;BME280;13308;50.860;13.664;2022-12-18T09:29:21;98285.69;;;-2.81;87.90
25130;BME280;13308;50.860;13.664;2022-12-18T09:31:46;98285.53;;;-2.71;86.85
25130;BME280;13308;50.860;13.664;2022-12-18T09:34:12;98287.44;;;-2.58;86.22
25130;BME280;13308;50.860;13.664;2022-12-18T09:36:38;98281.56;;;-2.33;84.67
25130;BME280;13308;50.860;13.664;2022-12-18T09:39:03;98290.41;;;-2.14;83.01
25130;BME280;13308;50.860;13.664;2022-12-18T09:41:42;98284.19;;;-2.01;81.91
25130;BME280;13308;50.860;13.664;2022-12-18T09:44:29;98282.16;;;-1.82;80.87
25130;BME280;13308;50.860;13.664;2022-12-18T09:49:43;98268.22;;;-0.96;76.72
25130;BME280;13308;50.860;13.664;2022-12-18T09:52:16;98289.94;;;-0.65;74.69
25130;BME280;13308;50.860;13.664;2022-12-18T09:54:46;98291.94;;;-0.49;72.14
25130;BME280;13308;50.860;13.664;2022-12-18T09:57:18;98280.63;;;-0.04;70.42
25130;BME280;13308;50.860;13.664;2022-12-18T10:00:33;98279.22;;;-0.01;69.54
25130;BME280;13308;50.860;13.664;2022-12-18T10:02:37;98281.22;;;0.24;67.21
25130;BME280;13308;50.860;13.664;2022-12-18T10:05:05;98266.72;;;0.71;65.45
25130;BME280;13308;50.860;13.664;2022-12-18T10:07:55;98268.66;;;1.67;64.61
25130;BME280;13308;50.860;13.664;2022-12-18T10:13:26;98275.75;;;2.76;60.69
25130;BME280;13308;50.860;13.664;2022-12-18T10:16:02;98273.69;;;3.26;58.91
25130;BME280;13308;50.860;13.664;2022-12-18T10:21:54;98256.09;;;3.80;58.25
25130;BME280;13308;50.860;13.664;2022-12-18T10:27:18;98248.84;;;4.44;57.67
25130;BME280;13308;50.860;13.664;2022-12-18T10:29:46;98242.31;;;4.60;55.43
25130;BME280;13308;50.860;13.664;2022-12-18T10:32:24;98230.41;;;4.92;54.66
25130;BME280;13308;50.860;13.664;2022-12-18T10:34:53;98235.94;;;4.68;55.16
25130;BME280;13308;50.860;13.664;2022-12-18T10:37:26;98225.13;;;4.60;54.27
25130;BME280;13308;50.860;13.664;2022-12-18T10:40:08;98230.44;;;4.17;53.33
25130;BME280;13308;50.860;13.664;2022-12-18T10:42:34;98218.38;;;4.30;53.17
25130;BME280;13308;50.860;13.664;2022-12-18T10:45:03;98216.91;;;3.72;54.65
25130;BME280;13308;50.860;13.664;2022-12-18T10:47:29;98205.34;;;3.43;55.30
25130;BME280;13308;50.860;13.664;2022-12-18T10:49:54;98214.00;;;3.57;54.46
25130;BME280;13308;50.860;13.664;2022-12-18T10:52:21;98203.63;;;2.94;54.79
25130;BME280;13308;50.860;13.664;2022-12-18T10:57:35;98203.72;;;2.65;55.47
25130;BME280;13308;50.860;13.664;2022-12-18T11:02:47;98201.59;;;2.70;56.34
25130;BME280;13308;50.860;13.664;2022-12-18T11:05:32;98208.34;;;2.85;55.56
25130;BME280;13308;50.860;13.664;2022-12-18T11:07:59;98213.84;;;2.97;54.80
25130;BME280;13308;50.860;13.664;2022-12-18T11:10:31;98213.78;;;3.50;55.10
25130;BME280;13308;50.860;13.664;2022-12-18T11:13:10;98223.56;;;3.63;52.97
25130;BME280;13308;50.860;13.664;2022-12-18T11:15:36;98219.97;;;3.71;52.69
25130;BME280;13308;50.860;13.664;2022-12-18T11:18:01;98206.06;;;3.52;53.68
25130;BME280;13308;50.860;13.664;2022-12-18T11:20:36;98217.72;;;3.40;52.62
25130;BME280;13308;50.860;13.664;2022-12-18T11:23:11;98201.50;;;3.56;54.97
25130;BME280;13308;50.860;13.664;2022-12-18T11:25:37;98197.78;;;3.60;52.81
25130;BME280;13308;50.860;13.664;2022-12-18T11:31:22;98182.47;;;3.23;53.47
25130;BME280;13308;50.860;13.664;2022-12-18T11:34:10;98179.06;;;3.14;53.43
25130;BME280;13308;50.860;13.664;2022-12-18T11:36:41;98173.22;;;3.36;53.07
25130;BME280;13308;50.860;13.664;2022-12-18T11:39:31;98170.50;;;3.36;52.22
25130;BME280;13308;50.860;13.664;2022-12-18T11:44:48;98177.19;;;3.51;51.31
25130;BME280;13308;50.860;13.664;2022-12-18T11:47:23;98179.66;;;3.32;51.98
25130;BME280;13308;50.860;13.664;2022-12-18T11:49:51;98188.22;;;3.42;51.25
25130;BME280;13308;50.860;13.664;2022-12-18T11:52:47;98182.25;;;3.16;52.05
25130;BME280;13308;50.860;13.664;2022-12-18T11:55:14;98179.47;;;3.61;51.74
25130;BME280;13308;50.860;13.664;2022-12-18T12:00:56;98189.56;;;3.36;51.76
25130;BME280;13308;50.860;13.664;2022-12-18T12:03:47;98198.53;;;3.37;52.03
25130;BME280;13308;50.860;13.664;2022-12-18T12:09:44;98208.19;;;3.46;53.11
25130;BME280;13308;50.860;13.664;2022-12-18T12:15:43;98210.16;;;3.58;50.81
25130;BME280;13308;50.860;13.664;2022-12-18T12:26:23;98227.50;;;2.76;52.13
25130;BME280;13308;50.860;13.664;2022-12-18T12:34:23;98221.94;;;2.03;54.07
25130;BME280;13308;50.860;13.664;2022-12-18T12:39:37;98230.09;;;1.28;57.13
25130;BME280;13308;50.860;13.664;2022-12-18T12:42:05;98232.53;;;1.04;57.73
25130;BME280;13308;50.860;13.664;2022-12-18T12:44:55;98230.19;;;0.60;58.67
25130;BME280;13308;50.860;13.664;2022-12-18T12:47:31;98220.09;;;0.60;59.78
25130;BME280;13308;50.860;13.664;2022-12-18T12:50:01;98213.91;;;0.43;60.60
25130;BME280;13308;50.860;13.664;2022-12-18T12:52:31;98201.75;;;0.32;61.75
25130;BME280;13308;50.860;13.664;2022-12-18T12:55:02;98214.13;;;-0.01;62.10
25130;BME280;13308;50.860;13.664;2022-12-18T12:57:39;98203.84;;;-0.38;64.34
25130;BME280;13308;50.860;13.664;2022-12-18T13:00:10;98196.84;;;-0.30;65.05
25130;BME280;13308;50.860;13.664;2022-12-18T13:02:42;98185.84;;;-0.34;65.65
25130;BME280;13308;50.860;13.664;2022-12-18T13:05:53;98197.28;;;-0.37;67.18
25130;BME280;13308;50.860;13.664;2022-12-18T13:08:29;98191.81;;;-0.54;67.65
25130;BME280;13308;50.860;13.664;2022-12-18T13:10:57;98185.38;;;-0.75;69.09
25130;BME280;13308;50.860;13.664;2022-12-18T13:13:52;98186.13;;;-1.13;70.81
25130;BME280;13308;50.860;13.664;2022-12-18T13:16:19;98190.25;;;-1.38;72.67
25130;BME280;13308;50.860;13.664;2022-12-18T13:18:56;98192.59;;;-1.23;72.25
25130;BME280;13308;50.860;13.664;2022-12-18T13:21:32;98188.72;;;-1.30;72.68
25130;BME280;13308;50.860;13.664;2022-12-18T13:24:15;98186.41;;;-1.15;71.85
25130;BME280;13308;50.860;13.664;2022-12-18T13:26:46;98185.41;;;-1.27;72.81
25130;BME280;13308;50.860;13.664;2022-12-18T13:29:42;98190.72;;;-1.14;71.86
25130;BME280;13308;50.860;13.664;2022-12-18T13:32:24;98191.19;;;-0.90;69.93
25130;BME280;13308;50.860;13.664;2022-12-18T13:37:52;98203.28;;;-0.57;68.87
25130;BME280;13308;50.860;13.664;2022-12-18T13:45:49;98202.69;;;0.53;63.53
25130;BME280;13308;50.860;13.664;2022-12-18T13:48:25;98195.19;;;0.92;62.29
25130;BME280;13308;50.860;13.664;2022-12-18T13:53:30;98187.38;;;0.23;63.33
25130;BME280;13308;50.860;13.664;2022-12-18T13:55:58;98185.06;;;-0.26;64.58
25130;BME280;13308;50.860;13.664;2022-12-18T13:58:23;98183.22;;;-0.56;66.63
25130;BME280;13308;50.860;13.664;2022-12-18T14:00:49;98179.09;;;-0.84;67.72
25130;BME280;13308;50.860;13.664;2022-12-18T14:03:18;98167.31;;;-1.18;69.70
25130;BME280;13308;50.860;13.664;2022-12-18T14:05:44;98177.47;;;-1.46;71.08
25130;BME280;13308;50.860;13.664;2022-12-18T14:08:15;98173.41;;;-1.57;72.33
25130;BME280;13308;50.860;13.664;2022-12-18T14:10:43;98173.53;;;-1.62;71.01
25130;BME280;13308;50.860;13.664;2022-12-18T14:13:10;98169.59;;;-1.78;71.50
25130;BME280;13308;50.860;13.664;2022-12-18T14:15:41;98178.78;;;-1.79;71.62
25130;BME280;13308;50.860;13.664;2022-12-18T14:20:58;98171.03;;;-1.94;72.59
25130;BME280;13308;50.860;13.664;2022-12-18T14:23:44;98181.31;;;-2.18;73.86
25130;BME280;13308;50.860;13.664;2022-12-18T14:28:47;98181.75;;;-2.38;74.39
25130;BME280;13308;50.860;13.664;2022-12-18T14:31:20;98172.25;;;-2.49;74.70
25130;BME280;13308;50.860;13.664;2022-12-18T14:33:45;98165.13;;;-2.45;74.88
25130;BME280;13308;50.860;13.664;2022-12-18T14:36:19;98155.75;;;-2.61;75.83
25130;BME280;13308;50.860;13.664;2022-12-18T14:38:53;98150.66;;;-2.76;76.59
25130;BME280;13308;50.860;13.664;2022-12-18T14:41:20;98149.56;;;-2.88;77.76
25130;BME280;13308;50.860;13.664;2022-12-18T14:43:48;98138.25;;;-2.90;77.89
25130;BME280;13308;50.860;13.664;2022-12-18T14:48:59;98160.91;;;-3.05;78.59
25130;BME280;13308;50.860;13.664;2022-12-18T14:51:27;98155.72;;;-3.15;78.58
25130;BME280;13308;50.860;13.664;2022-12-18T14:53:56;98143.59;;;-3.31;79.57
25130;BME280;13308;50.860;13.664;2022-12-18T14:56:29;98144.78;;;-3.37;79.54
25130;BME280;13308;50.860;13.664;2022-12-18T14:59:03;98142.66;;;-3.53;79.80
25130;BME280;13308;50.860;13.664;2022-12-18T15:04:30;98142.53;;;-3.62;80.10
25130;BME280;13308;50.860;13.664;2022-12-18T15:13:06;98135.22;;;-3.75;80.45
25130;BME280;13308;50.860;13.664;2022-12-18T15:17:59;98134.25;;;-3.84;81.33
25130;BME280;13308;50.860;13.664;2022-12-18T15:20:24;98140.53;;;-3.88;81.02
25130;BME280;13308;50.860;13.664;2022-12-18T15:22:50;98135.31;;;-3.98;80.96
25130;BME280;13308;50.860;13.664;2022-12-18T15:25:32;98132.53;;;-3.93;80.60
25130;BME280;13308;50.860;13.664;2022-12-18T15:27:58;98134.88;;;-4.05;80.62
25130;BME280;13308;50.860;13.664;2022-12-18T15:30:25;98136.91;;;-3.97;80.66
25130;BME280;13308;50.860;13.664;2022-12-18T15:32:51;98129.69;;;-4.02;81.21
25130;BME280;13308;50.860;13.664;2022-12-18T15:35:21;98127.94;;;-3.93;80.28
25130;BME280;13308;50.860;13.664;2022-12-18T15:37:48;98121.84;;;-4.17;80.96
25130;BME280;13308;50.860;13.664;2022-12-18T15:40:19;98124.78;;;-4.13;81.40
25130;BME280;13308;50.860;13.664;2022-12-18T15:42:45;98123.16;;;-3.96;81.05
25130;BME280;13308;50.860;13.664;2022-12-18T15:45:29;98125.06;;;-4.15;81.10
25130;BME280;13308;50.860;13.664;2022-12-18T15:47:55;98121.28;;;-4.14;80.59
25130;BME280;13308;50.860;13.664;2022-12-18T15:50:20;98120.78;;;-4.16;80.79
25130;BME280;13308;50.860;13.664;2022-12-18T15:52:47;98111.94;;;-4.03;80.31
25130;BME280;13308;50.860;13.664;2022-12-18T15:55:22;98113.06;;;-3.90;79.89
25130;BME280;13308;50.860;13.664;2022-12-18T15:58:08;98117.69;;;-3.91;79.59
25130;BME280;13308;50.860;13.664;2022-12-18T16:00:36;98117.97;;;-3.92;79.98
25130;BME280;13308;50.860;13.664;2022-12-18T16:03:04;98107.91;;;-3.87;79.12
25130;BME280;13308;50.860;13.664;2022-12-18T16:05:30;98104.50;;;-3.92;79.36
25130;BME280;13308;50.860;13.664;2022-12-18T16:07:55;98107.78;;;-3.95;79.37
25130;BME280;13308;50.860;13.664;2022-12-18T16:10:21;98100.44;;;-4.08;79.98
25130;BME280;13308;50.860;13.664;2022-12-18T16:12:46;98108.97;;;-4.20;81.52
25130;BME280;13308;50.860;13.664;2022-12-18T16:15:14;98106.06;;;-4.23;81.65
25130;BME280;13308;50.860;13.664;2022-12-18T16:17:41;98098.19;;;-4.38;82.27
25130;BME280;13308;50.860;13.664;2022-12-18T16:20:17;98099.06;;;-4.43;82.64
25130;BME280;13308;50.860;13.664;2022-12-18T16:22:43;98092.00;;;-4.76;83.11
25130;BME280;13308;50.860;13.664;2022-12-18T16:25:21;98089.81;;;-4.74;83.76
25130;BME280;13308;50.860;13.664;2022-12-18T16:27:47;98092.16;;;-4.49;84.45
25130;BME280;13308;50.860;13.664;2022-12-18T16:30:14;98102.06;;;-4.63;82.88
25130;BME280;13308;50.860;13.664;2022-12-18T16:32:40;98092.06;;;-4.62;84.05
25130;BME280;13308;50.860;13.664;2022-12-18T16:35:05;98084.50;;;-4.79;85.52
25130;BME280;13308;50.860;13.664;2022-12-18T16:37:31;98092.41;;;-5.06;85.46
25130;BME280;13308;50.860;13.664;2022-12-18T16:39:56;98083.56;;;-4.88;86.30
25130;BME280;13308;50.860;13.664;2022-12-18T16:42:22;98085.88;;;-5.00;85.33
25130;BME280;13308;50.860;13.664;2022-12-18T16:44:48;98083.28;;;-5.10;85.47
25130;BME280;13308;50.860;13.664;2022-12-18T16:47:14;98086.91;;;-5.19;85.69
25130;BME280;13308;50.860;13.664;2022-12-18T16:49:40;98089.81;;;-5.16;85.19
25130;BME280;13308;50.860;13.664;2022-12-18T16:52:06;98086.19;;;-5.30;85.47
25130;BME280;13308;50.860;13.664;2022-12-18T16:54:32;98079.53;;;-5.32;85.03
25130;BME280;13308;50.860;13.664;2022-12-18T16:56:59;98081.34;;;-5.28;85.90
25130;BME280;13308;50.860;13.664;2022-12-18T16:59:25;98069.47;;;-5.22;85.42
25130;BME280;13308;50.860;13.664;2022-12-18T17:01:51;98065.59;;;-4.92;86.96
25130;BME280;13308;50.860;13.664;2022-12-18T17:04:16;98061.59;;;-4.21;88.36
25130;BME280;13308;50.860;13.664;2022-12-18T17:06:43;98060.13;;;-3.81;86.61
25130;BME280;13308;50.860;13.664;2022-12-18T17:09:13;98067.09;;;-3.35;86.50
25130;BME280;13308;50.860;13.664;2022-12-18T17:11:40;98067.78;;;-2.89;83.91
25130;BME280;13308;50.860;13.664;2022-12-18T17:14:07;98062.97;;;-2.78;83.36
25130;BME280;13308;50.860;13.664;2022-12-18T17:16:33;98070.75;;;-2.63;82.88
25130;BME280;13308;50.860;13.664;2022-12-18T17:18:58;98069.00;;;-2.46;81.67
25130;BME280;13308;50.860;13.664;2022-12-18T17:21:23;98062.06;;;-2.25;79.81
25130;BME280;13308;50.860;13.664;2022-12-18T17:23:49;98056.03;;;-2.22;80.13
25130;BME280;13308;50.860;13.664;2022-12-18T17:26:14;98051.44;;;-2.21;80.07
25130;BME280;13308;50.860;13.664;2022-12-18T17:28:40;98055.56;;;-2.24;80.00
25130;BME280;13308;50.860;13.664;2022-12-18T17:31:18;98050.81;;;-2.18;79.71
25130;BME280;13308;50.860;13.664;2022-12-18T17:33:44;98053.34;;;-2.22;79.62
25130;BME280;13308;50.860;13.664;2022-12-18T17:36:10;98039.41;;;-2.15;79.01
25130;BME280;13308;50.860;13.664;2022-12-18T17:38:36;98036.13;;;-2.04;77.88
25130;BME280;13308;50.860;13.664;2022-12-18T17:41:06;98028.66;;;-2.07;77.63
25130;BME280;13308;50.860;13.664;2022-12-18T17:43:33;98050.53;;;-1.95;77.59
25130;BME280;13308;50.860;13.664;2022-12-18T17:46:04;98047.47;;;-2.02;77.21
25130;BME280;13308;50.860;13.664;2022-12-18T17:48:31;98044.00;;;-1.94;76.40
25130;BME280;13308;50.860;13.664;2022-12-18T17:51:01;98047.06;;;-1.87;75.41
25130;BME280;13308;50.860;13.664;2022-12-18T17:53:27;98031.84;;;-1.83;74.90
25130;BME280;13308;50.860;13.664;2022-12-18T17:55:53;98034.66;;;-1.88;75.05
25130;BME280;13308;50.860;13.664;2022-12-18T17:58:20;98037.78;;;-1.72;73.99
25130;BME280;13308;50.860;13.664;2022-12-18T18:00:45;98032.91;;;-1.62;73.89
25130;BME280;13308;50.860;13.664;2022-12-18T18:03:10;98037.78;;;-1.42;71.33
25130;BME280;13308;50.860;13.664;2022-12-18T18:05:36;98043.22;;;-1.42;72.81
25130;BME280;13308;50.860;13.664;2022-12-18T18:08:01;98025.72;;;-1.36;71.81
25130;BME280;13308;50.860;13.664;2022-12-18T18:10:27;98022.66;;;-1.43;73.19
25130;BME280;13308;50.860;13.664;2022-12-18T18:12:52;98027.94;;;-1.38;72.59
25130;BME280;13308;50.860;13.664;2022-12-18T18:15:36;98019.81;;;-1.38;73.48
25130;BME280;13308;50.860;13.664;2022-12-18T18:18:01;98024.16;;;-1.28;73.41
25130;BME280;13308;50.860;13.664;2022-12-18T18:20:26;98011.69;;;-1.38;74.07
25130;BME280;13308;50.860;13.664;2022-12-18T18:22:54;98023.22;;;-1.24;72.33
25130;BME280;13308;50.860;13.664;2022-12-18T18:25:20;98020.19;;;-1.22;72.04
25130;BME280;13308;50.860;13.664;2022-12-18T18:27:45;98020.66;;;-1.29;73.38
25130;BME280;13308;50.860;13.664;2022-12-18T18:30:10;98008.91;;;-1.16;72.26
25130;BME280;13308;50.860;13.664;2022-12-18T18:32:36;98003.03;;;-1.18;71.90
25130;BME280;13308;50.860;13.664;2022-12-18T18:35:04;97996.22;;;-1.07;70.65
25130;BME280;13308;50.860;13.664;2022-12-18T18:37:30;97995.88;;;-1.14;72.37
25130;BME280;13308;50.860;13.664;2022-12-18T18:39:55;97986.47;;;-1.16;73.90
25130;BME280;13308;50.860;13.664;2022-12-18T18:42:21;97988.09;;;-1.15;74.18
25130;BME280;13308;50.860;13.664;2022-12-18T18:44:46;97990.31;;;-1.09;71.82
25130;BME280;13308;50.860;13.664;2022-12-18T18:47:11;97969.66;;;-0.96;70.19
25130;BME280;13308;50.860;13.664;2022-12-18T18:49:38;97975.53;;;-1.03;70.96
25130;BME280;13308;50.860;13.664;2022-12-18T18:52:04;97982.22;;;-1.00;72.05
25130;BME280;13308;50.860;13.664;2022-12-18T18:54:31;97971.88;;;-0.90;72.17
25130;BME280;13308;50.860;13.664;2022-12-18T18:56:57;97976.84;;;-0.83;70.33
25130;BME280;13308;50.860;13.664;2022-12-18T18:59:22;97982.88;;;-0.78;68.15
25130;BME280;13308;50.860;13.664;2022-12-18T19:01:48;97984.00;;;-0.79;69.42
25130;BME280;13308;50.860;13.664;2022-12-18T19:04:14;97988.66;;;-0.71;67.60
25130;BME280;13308;50.860;13.664;2022-12-18T19:06:40;97968.88;;;-0.80;70.31
25130;BME280;13308;50.860;13.664;2022-12-18T19:09:07;97961.22;;;-0.69;68.39
